sensor_id;sensor_type;location;lat;lon;timestamp;P1;durP1;ratioP1;P2;durP2;ratioP2
76986;SDS011;65922;50.086;8.598;2023-11-21T00:00:44;0.2;;;1.2;;
76986;SDS011;65922;50.086;8.598;2023-11-21T00:01:44;0.2;;;1.4;;
76986;SDS011;65922;50.086;8.598;2023-11-21T00:02:44;0.6;;;3.2;;
76986;SDS011;65922;50.086;8.598;2023-11-21T00:03:44;0.8;;;3.8;;
76986;SDS011;65922;50.086;8.598;2023-11-21T00:04:44;0.5;;;2.6;;
76986;SDS011;65922;50.086;8.598;2023-11-21T00:05:44;1.1;;;6.9;;
76986;SDS011;65922;50.086;8.598;2023-11-21T00:06:44;0.3;;;2.4;;
76986;SDS011;65922;50.086;8.598;2023-11-21T00:07:44;1.3;;;3.1;;
76986;SDS011;65922;50.086;8.598;2023-11-21T00:08:44;0.4;;;1.8;;
76986;SDS011;65922;50.086;8.598;2023-11-21T00:09:44;1.4;;;3.2;;
76986;SDS011;65922;50.086;8.598;2023-11-21T00:10:44;1.2;;;1.3;;
76986;SDS011;65922;50.086;8.598;2023-11-21T00:11:44;0.6;;;1.1;;
76986;SDS011;65922;50.086;8.598;2023-11-21T00:12:45;0.8;;;5.1;;
76986;SDS011;65922;50.086;8.598;2023-11-21T00:13:44;0.2;;;1.7;;
76986;SDS011;65922;50.086;8.598;2023-11-21T00:14:44;0.5;;;2.4;;
76986;SDS011;65922;50.086;8.598;2023-11-21T00:15:44;0.7;;;1.4;;
76986;SDS011;65922;50.086;8.598;2023-11-21T00:16:44;1.1;;;2.8;;
76986;SDS011;65922;50.086;8.598;2023-11-21T00:17:44;1.3;;;6.8;;
76986;SDS011;65922;50.086;8.598;2023-11-21T00:18:44;0.9;;;3.1;;
76986;SDS011;65922;50.086;8.598;2023-11-21T00:19:44;0.3;;;3.6;;
76986;SDS011;65922;50.086;8.598;2023-11-21T00:20:44;0.5;;;4.6;;
76986;SDS011;65922;50.086;8.598;2023-11-21T00:21:44;1.1;;;1.4;;
76986;SDS011;65922;50.086;8.598;2023-11-21T00:22:44;0.5;;;2.9;;
76986;SDS011;65922;50.086;8.598;2023-11-21T00:23:44;0.5;;;1.2;;
76986;SDS011;65922;50.086;8.598;2023-11-21T00:24:44;0.3;;;1.9;;
76986;SDS011;65922;50.086;8.598;2023-11-21T00:25:44;0.5;;;1.3;;
76986;SDS011;65922;50.086;8.598;2023-11-21T00:26:44;0.4;;;2;;
76986;SDS011;65922;50.086;8.598;2023-11-21T00:27:44;0.6;;;3.4;;
76986;SDS011;65922;50.086;8.598;2023-11-21T00:28:44;0.1;;;0.8;;
76986;SDS011;65922;50.086;8.598;2023-11-21T00:29:44;1.3;;;1.8;;
76986;SDS011;65922;50.086;8.598;2023-11-21T00:30:44;1.1;;;2.2;;
76986;SDS011;65922;50.086;8.598;2023-11-21T00:31:44;0.2;;;0.8;;
76986;SDS011;65922;50.086;8.598;2023-11-21T00:32:44;0.4;;;2.7;;
76986;SDS011;65922;50.086;8.598;2023-11-21T00:33:44;1.4;;;5.6;;
76986;SDS011;65922;50.086;8.598;2023-11-21T00:34:44;0.4;;;6.2;;
76986;SDS011;65922;50.086;8.598;2023-11-21T00:35:44;1;;;2.2;;
76986;SDS011;65922;50.086;8.598;2023-11-21T00:36:44;1.3;;;2;;
76986;SDS011;65922;50.086;8.598;2023-11-21T00:37:44;0.8;;;5.3;;
76986;SDS011;65922;50.086;8.598;2023-11-21T00:38:44;1.1;;;1.6;;
76986;SDS011;65922;50.086;8.598;2023-11-21T00:39:45;0.8;;;6.2;;
76986;SDS011;65922;50.086;8.598;2023-11-21T00:40:44;0.8;;;3;;
76986;SDS011;65922;50.086;8.598;2023-11-21T00:41:44;0.1;;;1.7;;
76986;SDS011;65922;50.086;8.598;2023-11-21T00:42:44;0.2;;;0.7;;
76986;SDS011;65922;50.086;8.598;2023-11-21T00:43:44;1.3;;;1.4;;
76986;SDS011;65922;50.086;8.598;2023-11-21T00:44:44;0.7;;;6.2;;
76986;SDS011;65922;50.086;8.598;2023-11-21T00:45:44;1.2;;;4.1;;
76986;SDS011;65922;50.086;8.598;2023-11-21T00:46:44;0.3;;;4.2;;
76986;SDS011;65922;50.086;8.598;2023-11-21T00:47:44;0.4;;;4;;
76986;SDS011;65922;50.086;8.598;2023-11-21T00:48:44;1.1;;;2;;
76986;SDS011;65922;50.086;8.598;2023-11-21T00:49:44;0.2;;;1.2;;
76986;SDS011;65922;50.086;8.598;2023-11-21T00:50:44;0.8;;;1.8;;
76986;SDS011;65922;50.086;8.598;2023-11-21T00:51:44;0.3;;;3.8;;
76986;SDS011;65922;50.086;8.598;2023-11-21T00:52:44;1.1;;;3.1;;
76986;SDS011;65922;50.086;8.598;2023-11-21T00:53:44;0.6;;;2.1;;
76986;SDS011;65922;50.086;8.598;2023-11-21T00:54:45;0.7;;;3.5;;
76986;SDS011;65922;50.086;8.598;2023-11-21T00:55:44;1.2;;;3.1;;
76986;SDS011;65922;50.086;8.598;2023-11-21T00:56:44;0.7;;;4;;
76986;SDS011;65922;50.086;8.598;2023-11-21T00:57:44;0.5;;;0.9;;
76986;SDS011;65922;50.086;8.598;2023-11-21T00:58:44;0.9;;;2.8;;
76986;SDS011;65922;50.086;8.598;2023-11-21T00:59:44;0.9;;;7;;
76986;SDS011;65922;50.086;8.598;2023-11-21T01:00:44;0.7;;;5.6;;
76986;SDS011;65922;50.086;8.598;2023-11-21T01:01:44;0.5;;;1.3;;
76986;SDS011;65922;50.086;8.598;2023-11-21T01:02:44;0.8;;;5.3;;
76986;SDS011;65922;50.086;8.598;2023-11-21T01:03:45;0.7;;;2.7;;
76986;SDS011;65922;50.086;8.598;2023-11-21T01:04:45;1.4;;;3.2;;
76986;SDS011;65922;50.086;8.598;2023-11-21T01:05:45;0.8;;;7.5;;
76986;SDS011;65922;50.086;8.598;2023-11-21T01:06:44;1.8;;;4.6;;
76986;SDS011;65922;50.086;8.598;2023-11-21T01:07:44;2.5;;;5.7;;
76986;SDS011;65922;50.086;8.598;2023-11-21T01:08:44;0.9;;;4.1;;
76986;SDS011;65922;50.086;8.598;2023-11-21T01:09:44;1;;;3.9;;
76986;SDS011;65922;50.086;8.598;2023-11-21T01:10:44;1.6;;;4.3;;
76986;SDS011;65922;50.086;8.598;2023-11-21T01:11:44;1.1;;;5.8;;
76986;SDS011;65922;50.086;8.598;2023-11-21T01:12:44;1.2;;;2.2;;
76986;SDS011;65922;50.086;8.598;2023-11-21T01:13:44;1.7;;;4.6;;
76986;SDS011;65922;50.086;8.598;2023-11-21T01:14:44;1.3;;;2.6;;
76986;SDS011;65922;50.086;8.598;2023-11-21T01:15:44;1.4;;;2.9;;
76986;SDS011;65922;50.086;8.598;2023-11-21T01:16:44;1.2;;;3.4;;
76986;SDS011;65922;50.086;8.598;2023-11-21T01:17:44;1.3;;;5.5;;
76986;SDS011;65922;50.086;8.598;2023-11-21T01:18:44;1;;;2.6;;
76986;SDS011;65922;50.086;8.598;2023-11-21T01:19:44;1;;;2.8;;
76986;SDS011;65922;50.086;8.598;2023-11-21T01:20:46;1.3;;;6.2;;
76986;SDS011;65922;50.086;8.598;2023-11-21T01:21:44;0.9;;;2.6;;
76986;SDS011;65922;50.086;8.598;2023-11-21T01:22:44;1.2;;;3;;
76986;SDS011;65922;50.086;8.598;2023-11-21T01:23:44;2.2;;;4;;
76986;SDS011;65922;50.086;8.598;2023-11-21T01:24:44;1.7;;;2.8;;
76986;SDS011;65922;50.086;8.598;2023-11-21T01:25:44;1.2;;;3.1;;
76986;SDS011;65922;50.086;8.598;2023-11-21T01:26:44;1.2;;;3.8;;
76986;SDS011;65922;50.086;8.598;2023-11-21T01:27:44;0.4;;;2.3;;
76986;SDS011;65922;50.086;8.598;2023-11-21T01:28:44;1.4;;;1.9;;
76986;SDS011;65922;50.086;8.598;2023-11-21T01:29:44;0.9;;;4.6;;
76986;SDS011;65922;50.086;8.598;2023-11-21T01:30:44;1;;;6.1;;
76986;SDS011;65922;50.086;8.598;2023-11-21T01:31:45;1.7;;;4.1;;
76986;SDS011;65922;50.086;8.598;2023-11-21T01:32:44;1.6;;;4;;
76986;SDS011;65922;50.086;8.598;2023-11-21T01:33:44;1.7;;;3;;
76986;SDS011;65922;50.086;8.598;2023-11-21T01:34:44;1.4;;;3.8;;
76986;SDS011;65922;50.086;8.598;2023-11-21T01:35:44;1.3;;;4.3;;
76986;SDS011;65922;50.086;8.598;2023-11-21T01:36:45;1.3;;;4;;
76986;SDS011;65922;50.086;8.598;2023-11-21T01:37:44;1.3;;;4.2;;
76986;SDS011;65922;50.086;8.598;2023-11-21T01:38:44;1.5;;;6.2;;
76986;SDS011;65922;50.086;8.598;2023-11-21T01:39:44;1.7;;;3;;
76986;SDS011;65922;50.086;8.598;2023-11-21T01:40:44;1.2;;;4.5;;
76986;SDS011;65922;50.086;8.598;2023-11-21T01:41:44;1;;;2.4;;
76986;SDS011;65922;50.086;8.598;2023-11-21T01:42:45;0.8;;;3.6;;
76986;SDS011;65922;50.086;8.598;2023-11-21T01:43:44;1.5;;;4.8;;
76986;SDS011;65922;50.086;8.598;2023-11-21T01:44:44;0.9;;;5.6;;
76986;SDS011;65922;50.086;8.598;2023-11-21T01:45:44;0.7;;;3;;
76986;SDS011;65922;50.086;8.598;2023-11-21T01:46:44;2.1;;;6.4;;
76986;SDS011;65922;50.086;8.598;2023-11-21T01:47:44;0.7;;;3.3;;
76986;SDS011;65922;50.086;8.598;2023-11-21T01:48:44;1.5;;;3.4;;
76986;SDS011;65922;50.086;8.598;2023-11-21T01:49:44;1.5;;;5.2;;
76986;SDS011;65922;50.086;8.598;2023-11-21T01:50:44;1.7;;;4.8;;
76986;SDS011;65922;50.086;8.598;2023-11-21T01:51:45;1.4;;;5.8;;
76986;SDS011;65922;50.086;8.598;2023-11-21T01:52:45;1.3;;;5;;
76986;SDS011;65922;50.086;8.598;2023-11-21T01:53:44;2.4;;;6.8;;
76986;SDS011;65922;50.086;8.598;2023-11-21T01:54:44;0.8;;;3.3;;
76986;SDS011;65922;50.086;8.598;2023-11-21T01:55:45;1.5;;;6;;
76986;SDS011;65922;50.086;8.598;2023-11-21T01:56:44;1.5;;;3;;
76986;SDS011;65922;50.086;8.598;2023-11-21T01:57:44;1.5;;;2.8;;
76986;SDS011;65922;50.086;8.598;2023-11-21T01:58:44;1.4;;;3.8;;
76986;SDS011;65922;50.086;8.598;2023-11-21T01:59:44;2.8;;;5.1;;
76986;SDS011;65922;50.086;8.598;2023-11-21T02:00:44;3;;;6.1;;
76986;SDS011;65922;50.086;8.598;2023-11-21T02:01:44;1.7;;;3.7;;
76986;SDS011;65922;50.086;8.598;2023-11-21T02:02:44;1.7;;;4.4;;
76986;SDS011;65922;50.086;8.598;2023-11-21T02:03:44;1.3;;;3.2;;
76986;SDS011;65922;50.086;8.598;2023-11-21T02:04:44;1.5;;;4.9;;
76986;SDS011;65922;50.086;8.598;2023-11-21T02:05:44;1.3;;;4.5;;
76986;SDS011;65922;50.086;8.598;2023-11-21T02:06:44;1.4;;;4.3;;
76986;SDS011;65922;50.086;8.598;2023-11-21T02:07:44;0.6;;;3;;
76986;SDS011;65922;50.086;8.598;2023-11-21T02:08:44;1.7;;;4.7;;
76986;SDS011;65922;50.086;8.598;2023-11-21T02:09:44;2;;;4.1;;
76986;SDS011;65922;50.086;8.598;2023-11-21T02:10:44;1.2;;;3.1;;
76986;SDS011;65922;50.086;8.598;2023-11-21T02:11:44;1.1;;;2.2;;
76986;SDS011;65922;50.086;8.598;2023-11-21T02:12:44;1;;;2.3;;
76986;SDS011;65922;50.086;8.598;2023-11-21T02:13:44;1.1;;;2.4;;
76986;SDS011;65922;50.086;8.598;2023-11-21T02:14:44;1.9;;;4.4;;
76986;SDS011;65922;50.086;8.598;2023-11-21T02:15:44;1.8;;;6.6;;
76986;SDS011;65922;50.086;8.598;2023-11-21T02:16:44;1.6;;;9.2;;
76986;SDS011;65922;50.086;8.598;2023-11-21T02:17:44;1.3;;;4.6;;
76986;SDS011;65922;50.086;8.598;2023-11-21T02:18:44;1.7;;;3.2;;
76986;SDS011;65922;50.086;8.598;2023-11-21T02:19:44;1.3;;;2.6;;
76986;SDS011;65922;50.086;8.598;2023-11-21T02:20:44;2;;;3.4;;
76986;SDS011;65922;50.086;8.598;2023-11-21T02:21:44;4.6;;;5.5;;
76986;SDS011;65922;50.086;8.598;2023-11-21T02:22:48;1.4;;;2.8;;
76986;SDS011;65922;50.086;8.598;2023-11-21T02:23:44;1.3;;;5.2;;
76986;SDS011;65922;50.086;8.598;2023-11-21T02:24:45;1.2;;;3.7;;
76986;SDS011;65922;50.086;8.598;2023-11-21T02:25:44;2.3;;;3.8;;
76986;SDS011;65922;50.086;8.598;2023-11-21T02:26:44;1.5;;;4.1;;
76986;SDS011;65922;50.086;8.598;2023-11-21T02:27:44;1.5;;;2.5;;
76986;SDS011;65922;50.086;8.598;2023-11-21T02:28:44;2.1;;;6.5;;
76986;SDS011;65922;50.086;8.598;2023-11-21T02:29:44;3.3;;;9.8;;
76986;SDS011;65922;50.086;8.598;2023-11-21T02:30:44;1.2;;;8.9;;
76986;SDS011;65922;50.086;8.598;2023-11-21T02:31:46;2;;;4.4;;
76986;SDS011;65922;50.086;8.598;2023-11-21T02:32:44;2.9;;;5.7;;
76986;SDS011;65922;50.086;8.598;2023-11-21T02:33:44;0.6;;;3.4;;
76986;SDS011;65922;50.086;8.598;2023-11-21T02:34:45;2.4;;;8.6;;
76986;SDS011;65922;50.086;8.598;2023-11-21T02:35:44;2.3;;;8.2;;
76986;SDS011;65922;50.086;8.598;2023-11-21T02:36:44;1.6;;;5.9;;
76986;SDS011;65922;50.086;8.598;2023-11-21T02:37:44;1.2;;;2.6;;
76986;SDS011;65922;50.086;8.598;2023-11-21T02:38:44;2.1;;;3.7;;
76986;SDS011;65922;50.086;8.598;2023-11-21T02:39:44;1.5;;;4.6;;
76986;SDS011;65922;50.086;8.598;2023-11-21T02:40:44;3.3;;;6.2;;
76986;SDS011;65922;50.086;8.598;2023-11-21T02:41:44;2.8;;;10.2;;
76986;SDS011;65922;50.086;8.598;2023-11-21T02:42:44;2.1;;;4.6;;
76986;SDS011;65922;50.086;8.598;2023-11-21T02:43:45;2.1;;;4.7;;
76986;SDS011;65922;50.086;8.598;2023-11-21T02:44:44;4.3;;;6.8;;
76986;SDS011;65922;50.086;8.598;2023-11-21T02:45:44;2.8;;;4;;
76986;SDS011;65922;50.086;8.598;2023-11-21T02:46:44;1.6;;;7.1;;
76986;SDS011;65922;50.086;8.598;2023-11-21T02:47:44;2.9;;;5.2;;
76986;SDS011;65922;50.086;8.598;2023-11-21T02:48:44;2.4;;;5.9;;
76986;SDS011;65922;50.086;8.598;2023-11-21T02:49:44;1.8;;;4.3;;
76986;SDS011;65922;50.086;8.598;2023-11-21T02:50:44;1.9;;;4.6;;
76986;SDS011;65922;50.086;8.598;2023-11-21T02:51:44;2.6;;;8;;
76986;SDS011;65922;50.086;8.598;2023-11-21T02:52:44;2.3;;;4.8;;
76986;SDS011;65922;50.086;8.598;2023-11-21T02:53:44;3.2;;;9.4;;
76986;SDS011;65922;50.086;8.598;2023-11-21T02:54:44;2;;;5.9;;
76986;SDS011;65922;50.086;8.598;2023-11-21T02:55:44;5.3;;;6.7;;
76986;SDS011;65922;50.086;8.598;2023-11-21T02:56:44;1.1;;;3.6;;
76986;SDS011;65922;50.086;8.598;2023-11-21T02:57:44;2.7;;;6.6;;
76986;SDS011;65922;50.086;8.598;2023-11-21T02:58:45;1.5;;;7.8;;
76986;SDS011;65922;50.086;8.598;2023-11-21T02:59:44;1.5;;;6.6;;
76986;SDS011;65922;50.086;8.598;2023-11-21T03:00:44;2.8;;;11.2;;
76986;SDS011;65922;50.086;8.598;2023-11-21T03:01:44;2;;;7.3;;
76986;SDS011;65922;50.086;8.598;2023-11-21T03:02:44;1.9;;;5.6;;
76986;SDS011;65922;50.086;8.598;2023-11-21T03:03:44;3;;;7;;
76986;SDS011;65922;50.086;8.598;2023-11-21T03:04:44;2.1;;;3.5;;
76986;SDS011;65922;50.086;8.598;2023-11-21T03:05:44;1.7;;;5.8;;
76986;SDS011;65922;50.086;8.598;2023-11-21T03:06:44;2.2;;;5;;
76986;SDS011;65922;50.086;8.598;2023-11-21T03:07:44;1.6;;;3.2;;
76986;SDS011;65922;50.086;8.598;2023-11-21T03:08:44;1.9;;;6.5;;
76986;SDS011;65922;50.086;8.598;2023-11-21T03:09:44;2.6;;;5.3;;
76986;SDS011;65922;50.086;8.598;2023-11-21T03:10:44;2.8;;;4.9;;
76986;SDS011;65922;50.086;8.598;2023-11-21T03:11:44;1.7;;;4.7;;
76986;SDS011;65922;50.086;8.598;2023-11-21T03:12:44;2.7;;;5.9;;
76986;SDS011;65922;50.086;8.598;2023-11-21T03:13:44;2.5;;;7.1;;
76986;SDS011;65922;50.086;8.598;2023-11-21T03:14:44;1.7;;;4.2;;
76986;SDS011;65922;50.086;8.598;2023-11-21T03:15:46;2;;;5.1;;
76986;SDS011;65922;50.086;8.598;2023-11-21T03:16:47;1.1;;;3.5;;
76986;SDS011;65922;50.086;8.598;2023-11-21T03:17:44;1.9;;;3.9;;
76986;SDS011;65922;50.086;8.598;2023-11-21T03:18:48;1.7;;;5.6;;
76986;SDS011;65922;50.086;8.598;2023-11-21T03:19:44;2.1;;;4.4;;
76986;SDS011;65922;50.086;8.598;2023-11-21T03:20:44;2;;;4.2;;
76986;SDS011;65922;50.086;8.598;2023-11-21T03:21:44;2.3;;;4;;
76986;SDS011;65922;50.086;8.598;2023-11-21T03:22:45;1.5;;;4.1;;
76986;SDS011;65922;50.086;8.598;2023-11-21T03:23:44;1.4;;;5.2;;
76986;SDS011;65922;50.086;8.598;2023-11-21T03:24:44;1.6;;;3.5;;
76986;SDS011;65922;50.086;8.598;2023-11-21T03:25:44;1.8;;;4.7;;
76986;SDS011;65922;50.086;8.598;2023-11-21T03:26:45;1.5;;;4.5;;
76986;SDS011;65922;50.086;8.598;2023-11-21T03:27:44;1.4;;;2.4;;
76986;SDS011;65922;50.086;8.598;2023-11-21T03:28:44;1.8;;;5.2;;
76986;SDS011;65922;50.086;8.598;2023-11-21T03:29:44;1.1;;;4.5;;
76986;SDS011;65922;50.086;8.598;2023-11-21T03:30:44;1.9;;;4.6;;
76986;SDS011;65922;50.086;8.598;2023-11-21T03:31:44;2.1;;;5.9;;
76986;SDS011;65922;50.086;8.598;2023-11-21T03:32:44;1.5;;;2.7;;
76986;SDS011;65922;50.086;8.598;2023-11-21T03:33:44;1.2;;;2.9;;
76986;SDS011;65922;50.086;8.598;2023-11-21T03:35:00;1.1;;;3;;
76986;SDS011;65922;50.086;8.598;2023-11-21T03:35:44;0.9;;;2.4;;
76986;SDS011;65922;50.086;8.598;2023-11-21T03:36:44;1.5;;;3.8;;
76986;SDS011;65922;50.086;8.598;2023-11-21T03:37:44;1.6;;;4.3;;
76986;SDS011;65922;50.086;8.598;2023-11-21T03:38:44;2.3;;;3.6;;
76986;SDS011;65922;50.086;8.598;2023-11-21T03:39:44;1.5;;;4;;
76986;SDS011;65922;50.086;8.598;2023-11-21T03:40:44;4.5;;;5.4;;
76986;SDS011;65922;50.086;8.598;2023-11-21T03:41:44;1.7;;;2.9;;
76986;SDS011;65922;50.086;8.598;2023-11-21T03:42:44;1.3;;;3.8;;
76986;SDS011;65922;50.086;8.598;2023-11-21T03:43:44;1.1;;;2.5;;
76986;SDS011;65922;50.086;8.598;2023-11-21T03:44:44;1.5;;;3.1;;
76986;SDS011;65922;50.086;8.598;2023-11-21T03:45:44;1;;;2.1;;
76986;SDS011;65922;50.086;8.598;2023-11-21T03:46:44;1.1;;;3;;
76986;SDS011;65922;50.086;8.598;2023-11-21T03:47:44;1.3;;;3.8;;
76986;SDS011;65922;50.086;8.598;2023-11-21T03:48:44;1;;;1.6;;
76986;SDS011;65922;50.086;8.598;2023-11-21T03:49:44;1.1;;;4.5;;
76986;SDS011;65922;50.086;8.598;2023-11-21T03:50:44;1.1;;;5.6;;
76986;SDS011;65922;50.086;8.598;2023-11-21T03:51:44;2.1;;;4.9;;
76986;SDS011;65922;50.086;8.598;2023-11-21T03:52:44;1.3;;;2;;
76986;SDS011;65922;50.086;8.598;2023-11-21T03:53:44;1.9;;;5;;
76986;SDS011;65922;50.086;8.598;2023-11-21T03:54:44;2;;;4.6;;
76986;SDS011;65922;50.086;8.598;2023-11-21T03:55:44;1.6;;;2.8;;
76986;SDS011;65922;50.086;8.598;2023-11-21T03:56:44;0.4;;;2.1;;
76986;SDS011;65922;50.086;8.598;2023-11-21T03:57:44;1.5;;;2.2;;
76986;SDS011;65922;50.086;8.598;2023-11-21T03:58:44;0.9;;;2;;
76986;SDS011;65922;50.086;8.598;2023-11-21T03:59:44;1.1;;;5.7;;
76986;SDS011;65922;50.086;8.598;2023-11-21T04:00:45;1.1;;;3.6;;
76986;SDS011;65922;50.086;8.598;2023-11-21T04:01:44;0.7;;;1.8;;
76986;SDS011;65922;50.086;8.598;2023-11-21T04:02:45;1;;;2.1;;
76986;SDS011;65922;50.086;8.598;2023-11-21T04:03:46;1;;;2.6;;
76986;SDS011;65922;50.086;8.598;2023-11-21T04:04:44;0.6;;;3.7;;
76986;SDS011;65922;50.086;8.598;2023-11-21T04:05:45;1.3;;;2.3;;
76986;SDS011;65922;50.086;8.598;2023-11-21T04:06:44;1.2;;;2.5;;
76986;SDS011;65922;50.086;8.598;2023-11-21T04:07:44;1.2;;;2.9;;
76986;SDS011;65922;50.086;8.598;2023-11-21T04:08:44;1.3;;;3.2;;
76986;SDS011;65922;50.086;8.598;2023-11-21T04:09:44;1.3;;;5.2;;
76986;SDS011;65922;50.086;8.598;2023-11-21T04:10:44;1.6;;;6.8;;
76986;SDS011;65922;50.086;8.598;2023-11-21T04:11:44;1.6;;;3.1;;
76986;SDS011;65922;50.086;8.598;2023-11-21T04:12:44;1.4;;;3.4;;
76986;SDS011;65922;50.086;8.598;2023-11-21T04:13:44;1.1;;;5.4;;
76986;SDS011;65922;50.086;8.598;2023-11-21T04:14:44;2;;;4;;
76986;SDS011;65922;50.086;8.598;2023-11-21T04:15:44;1.3;;;4.1;;
76986;SDS011;65922;50.086;8.598;2023-11-21T04:16:44;1.7;;;3.7;;
76986;SDS011;65922;50.086;8.598;2023-11-21T04:17:44;1.1;;;2.2;;
76986;SDS011;65922;50.086;8.598;2023-11-21T04:18:44;2.5;;;4.3;;
76986;SDS011;65922;50.086;8.598;2023-11-21T04:19:44;1.6;;;3.4;;
76986;SDS011;65922;50.086;8.598;2023-11-21T04:20:44;1.4;;;2.8;;
76986;SDS011;65922;50.086;8.598;2023-11-21T04:21:44;1.8;;;3.5;;
76986;SDS011;65922;50.086;8.598;2023-11-21T04:22:44;1.9;;;4.2;;
76986;SDS011;65922;50.086;8.598;2023-11-21T04:23:44;1.1;;;3.8;;
76986;SDS011;65922;50.086;8.598;2023-11-21T04:24:44;1.4;;;4.4;;
76986;SDS011;65922;50.086;8.598;2023-11-21T04:25:46;1.3;;;3;;
76986;SDS011;65922;50.086;8.598;2023-11-21T04:26:44;1.5;;;5.6;;
76986;SDS011;65922;50.086;8.598;2023-11-21T04:27:44;1.5;;;2.9;;
76986;SDS011;65922;50.086;8.598;2023-11-21T04:28:44;1.7;;;2.8;;
76986;SDS011;65922;50.086;8.598;2023-11-21T04:29:44;0.9;;;2.7;;
76986;SDS011;65922;50.086;8.598;2023-11-21T04:30:44;2.5;;;3.7;;
76986;SDS011;65922;50.086;8.598;2023-11-21T04:31:44;1.5;;;3;;
76986;SDS011;65922;50.086;8.598;2023-11-21T04:32:44;1.2;;;5.2;;
76986;SDS011;65922;50.086;8.598;2023-11-21T04:33:44;2.4;;;4.5;;
76986;SDS011;65922;50.086;8.598;2023-11-21T04:34:44;1.6;;;5;;
76986;SDS011;65922;50.086;8.598;2023-11-21T04:35:44;1.1;;;4.3;;
76986;SDS011;65922;50.086;8.598;2023-11-21T04:36:44;1;;;3.1;;
76986;SDS011;65922;50.086;8.598;2023-11-21T04:37:44;1.4;;;3.7;;
76986;SDS011;65922;50.086;8.598;2023-11-21T04:38:45;2;;;6.4;;
76986;SDS011;65922;50.086;8.598;2023-11-21T04:39:44;2;;;5.1;;
76986;SDS011;65922;50.086;8.598;2023-11-21T04:40:44;1.8;;;3.6;;
76986;SDS011;65922;50.086;8.598;2023-11-21T04:41:44;1.7;;;5.4;;
76986;SDS011;65922;50.086;8.598;2023-11-21T04:42:44;2.5;;;5.9;;
76986;SDS011;65922;50.086;8.598;2023-11-21T04:43:44;1.6;;;4.8;;
76986;SDS011;65922;50.086;8.598;2023-11-21T04:44:44;1.2;;;4.9;;
76986;SDS011;65922;50.086;8.598;2023-11-21T04:45:44;1.6;;;4.2;;
76986;SDS011;65922;50.086;8.598;2023-11-21T04:46:44;1.7;;;7.8;;
76986;SDS011;65922;50.086;8.598;2023-11-21T04:47:44;1.5;;;5.4;;
76986;SDS011;65922;50.086;8.598;2023-11-21T04:48:44;1.5;;;7.8;;
76986;SDS011;65922;50.086;8.598;2023-11-21T04:49:45;1.6;;;3.1;;
76986;SDS011;65922;50.086;8.598;2023-11-21T04:50:44;1.7;;;3.2;;
76986;SDS011;65922;50.086;8.598;2023-11-21T04:51:44;1.9;;;4.4;;
76986;SDS011;65922;50.086;8.598;2023-11-21T04:52:44;0.8;;;4;;
76986;SDS011;65922;50.086;8.598;2023-11-21T04:53:44;1.1;;;2.8;;
76986;SDS011;65922;50.086;8.598;2023-11-21T04:54:44;1.1;;;3;;
76986;SDS011;65922;50.086;8.598;2023-11-21T04:55:44;1.3;;;4.2;;
76986;SDS011;65922;50.086;8.598;2023-11-21T04:56:44;2;;;6.1;;
76986;SDS011;65922;50.086;8.598;2023-11-21T04:57:44;1.9;;;4.1;;
76986;SDS011;65922;50.086;8.598;2023-11-21T04:58:45;0.7;;;2;;
76986;SDS011;65922;50.086;8.598;2023-11-21T04:59:44;1.3;;;2.7;;
76986;SDS011;65922;50.086;8.598;2023-11-21T05:00:44;1.5;;;3;;
76986;SDS011;65922;50.086;8.598;2023-11-21T05:01:44;1.8;;;4.3;;
76986;SDS011;65922;50.086;8.598;2023-11-21T05:02:44;1.9;;;4.4;;
76986;SDS011;65922;50.086;8.598;2023-11-21T05:03:44;1.1;;;3.1;;
76986;SDS011;65922;50.086;8.598;2023-11-21T05:04:44;2.3;;;4.7;;
76986;SDS011;65922;50.086;8.598;2023-11-21T05:05:44;1.6;;;4.7;;
76986;SDS011;65922;50.086;8.598;2023-11-21T05:06:46;2.3;;;5.2;;
76986;SDS011;65922;50.086;8.598;2023-11-21T05:07:44;1.5;;;3.8;;
76986;SDS011;65922;50.086;8.598;2023-11-21T05:08:44;1.7;;;3.5;;
76986;SDS011;65922;50.086;8.598;2023-11-21T05:09:44;1;;;3.3;;
76986;SDS011;65922;50.086;8.598;2023-11-21T05:10:44;1.9;;;5.4;;
76986;SDS011;65922;50.086;8.598;2023-11-21T05:11:46;1.7;;;3.8;;
76986;SDS011;65922;50.086;8.598;2023-11-21T05:12:44;2;;;4.5;;
76986;SDS011;65922;50.086;8.598;2023-11-21T05:13:44;1.6;;;4.4;;
76986;SDS011;65922;50.086;8.598;2023-11-21T05:14:44;1.6;;;4.2;;
76986;SDS011;65922;50.086;8.598;2023-11-21T05:15:44;1.6;;;3.6;;
76986;SDS011;65922;50.086;8.598;2023-11-21T05:16:44;2.1;;;3.5;;
76986;SDS011;65922;50.086;8.598;2023-11-21T05:17:44;2.3;;;5.9;;
76986;SDS011;65922;50.086;8.598;2023-11-21T05:18:45;3.4;;;6.7;;
76986;SDS011;65922;50.086;8.598;2023-11-21T05:19:44;1.9;;;6;;
76986;SDS011;65922;50.086;8.598;2023-11-21T05:20:44;1.6;;;3.3;;
76986;SDS011;65922;50.086;8.598;2023-11-21T05:21:44;2;;;4.6;;
76986;SDS011;65922;50.086;8.598;2023-11-21T05:22:44;2.7;;;7.1;;
76986;SDS011;65922;50.086;8.598;2023-11-21T05:23:44;3.5;;;5.4;;
76986;SDS011;65922;50.086;8.598;2023-11-21T05:24:44;2.4;;;6;;
76986;SDS011;65922;50.086;8.598;2023-11-21T05:25:44;3.1;;;6.8;;
76986;SDS011;65922;50.086;8.598;2023-11-21T05:26:44;2.7;;;6.5;;
76986;SDS011;65922;50.086;8.598;2023-11-21T05:27:44;3.1;;;7.7;;
76986;SDS011;65922;50.086;8.598;2023-11-21T05:28:44;2.8;;;6.1;;
76986;SDS011;65922;50.086;8.598;2023-11-21T05:29:44;3.2;;;6.5;;
76986;SDS011;65922;50.086;8.598;2023-11-21T05:30:44;3.2;;;9.9;;
76986;SDS011;65922;50.086;8.598;2023-11-21T05:31:44;3.6;;;13.9;;
76986;SDS011;65922;50.086;8.598;2023-11-21T05:32:44;4.1;;;10.5;;
76986;SDS011;65922;50.086;8.598;2023-11-21T05:33:44;3;;;9.1;;
76986;SDS011;65922;50.086;8.598;2023-11-21T05:34:44;4.2;;;7.7;;
76986;SDS011;65922;50.086;8.598;2023-11-21T05:35:44;5.6;;;9.5;;
76986;SDS011;65922;50.086;8.598;2023-11-21T05:36:44;3.7;;;6.9;;
76986;SDS011;65922;50.086;8.598;2023-11-21T05:37:44;6.2;;;11.4;;
76986;SDS011;65922;50.086;8.598;2023-11-21T05:38:44;4.2;;;8.8;;
76986;SDS011;65922;50.086;8.598;2023-11-21T05:39:45;4.5;;;10.7;;
76986;SDS011;65922;50.086;8.598;2023-11-21T05:40:44;4.7;;;8.7;;
76986;SDS011;65922;50.086;8.598;2023-11-21T05:41:44;4.4;;;8.4;;
76986;SDS011;65922;50.086;8.598;2023-11-21T05:42:44;3.3;;;8.5;;
76986;SDS011;65922;50.086;8.598;2023-11-21T05:43:44;4.9;;;10.3;;
76986;SDS011;65922;50.086;8.598;2023-11-21T05:44:45;3.4;;;6.6;;
76986;SDS011;65922;50.086;8.598;2023-11-21T05:45:44;4.2;;;11.7;;
76986;SDS011;65922;50.086;8.598;2023-11-21T05:46:44;3.3;;;9.1;;
76986;SDS011;65922;50.086;8.598;2023-11-21T05:47:45;4.6;;;12.7;;
76986;SDS011;65922;50.086;8.598;2023-11-21T05:48:44;5.5;;;10.7;;
76986;SDS011;65922;50.086;8.598;2023-11-21T05:49:44;3.2;;;12.9;;
76986;SDS011;65922;50.086;8.598;2023-11-21T05:50:44;4.6;;;10.2;;
76986;SDS011;65922;50.086;8.598;2023-11-21T05:51:44;3.4;;;7.1;;
76986;SDS011;65922;50.086;8.598;2023-11-21T05:52:45;5.7;;;11.1;;
76986;SDS011;65922;50.086;8.598;2023-11-21T05:53:44;4.8;;;7.8;;
76986;SDS011;65922;50.086;8.598;2023-11-21T05:54:44;4.6;;;11.3;;
76986;SDS011;65922;50.086;8.598;2023-11-21T05:55:44;4.8;;;10.9;;
76986;SDS011;65922;50.086;8.598;2023-11-21T05:56:44;5.5;;;12.6;;
76986;SDS011;65922;50.086;8.598;2023-11-21T05:57:44;4.9;;;13.1;;
76986;SDS011;65922;50.086;8.598;2023-11-21T05:58:44;3.7;;;8;;
76986;SDS011;65922;50.086;8.598;2023-11-21T05:59:44;4.9;;;16.7;;
76986;SDS011;65922;50.086;8.598;2023-11-21T06:00:44;4.7;;;14.5;;
76986;SDS011;65922;50.086;8.598;2023-11-21T06:01:44;3.7;;;10;;
76986;SDS011;65922;50.086;8.598;2023-11-21T06:02:44;3;;;11.6;;
76986;SDS011;65922;50.086;8.598;2023-11-21T06:03:44;3.9;;;8.9;;
76986;SDS011;65922;50.086;8.598;2023-11-21T06:04:44;3.2;;;11.1;;
76986;SDS011;65922;50.086;8.598;2023-11-21T06:05:45;2.9;;;7.8;;
76986;SDS011;65922;50.086;8.598;2023-11-21T06:06:44;3.4;;;9.2;;
76986;SDS011;65922;50.086;8.598;2023-11-21T06:07:44;2.4;;;10.7;;
76986;SDS011;65922;50.086;8.598;2023-11-21T06:08:44;2.8;;;8.9;;
76986;SDS011;65922;50.086;8.598;2023-11-21T06:09:45;2.7;;;7;;
76986;SDS011;65922;50.086;8.598;2023-11-21T06:10:44;3.8;;;6.9;;
76986;SDS011;65922;50.086;8.598;2023-11-21T06:11:44;3.7;;;11.9;;
76986;SDS011;65922;50.086;8.598;2023-11-21T06:12:44;2.1;;;7;;
76986;SDS011;65922;50.086;8.598;2023-11-21T06:13:44;3.1;;;10.3;;
76986;SDS011;65922;50.086;8.598;2023-11-21T06:14:44;3.1;;;7.1;;